| time (UTC) | temp F | wind direction | speed knots | gust knots | rain 1hr in | rain 24hr in | rain mn in | humidity % | barometer mb |
| 20260507071557 | 31 | 122 | 3.5 | 9.6 | 0.00 | 0.79 | 0.00 | 99 | 1002.8 |
| 20260507070107 | 32 | 98 | 5.2 | 10.4 | 0.00 | 0.79 | 0.00 | 100 | 1002.2 |
| 20260507064600 | 32 | 65 | 4.3 | 12.2 | 0.00 | 0.80 | 0.00 | 100 | 1002.5 |
| 20260507063058 | 33 | 84 | 5.2 | 10.4 | 0.00 | 0.80 | 0.00 | 100 | 1001.8 |
| 20260507061559 | 33 | 109 | 5.2 | 13.0 | 0.00 | 0.80 | 0.00 | 100 | 1002.4 |
| 20260507060105 | 33 | 317 | 5.2 | 13.9 | 0.00 | 0.80 | 0.00 | 100 | 1002.7 |
| 20260507054559 | 33 | 142 | 6.1 | 12.2 | 0.00 | 0.83 | 0.00 | 100 | 1002.5 |
| 20260507053055 | 33 | 164 | 5.2 | 13.9 | 0.00 | 0.83 | 0.00 | 100 | 1002.6 |
| 20260507051557 | 34 | 17 | 4.3 | 8.7 | 0.00 | 0.83 | 0.00 | 100 | 1002.8 |
| 20260507050057 | 34 | 321 | 3.5 | 9.6 | 0.00 | 0.83 | 0.00 | 100 | 1002.7 |
| 20260507044601 | 35 | 252 | 4.3 | 9.6 | 0.00 | 0.83 | 0.00 | 100 | 1002.8 |
| 20260507043059 | 35 | 132 | 2.6 | 6.1 | 0.02 | 0.83 | 0.00 | 100 | 1003.1 |
| 20260507041555 | 35 | 79 | 3.5 | 10.4 | 0.04 | 0.83 | 0.00 | 100 | 1003.5 |
| 20260507040103 | 35 | 112 | 7.0 | 15.6 | 0.04 | 0.83 | 0.00 | 100 | 1003.9 |
| 20260507034559 | 36 | 67 | 5.2 | 13.0 | 0.07 | 0.83 | 0.83 | 100 | 1003.8 |
| 20260507033055 | 36 | 114 | 5.2 | 15.6 | 0.07 | 0.81 | 0.81 | 100 | 1004.2 |
| 20260507031553 | 36 | 82 | 5.2 | 13.0 | 0.07 | 0.79 | 0.79 | 99 | 1004.2 |
| 20260507030055 | 37 | 228 | 4.3 | 12.2 | 0.11 | 0.79 | 0.79 | 99 | 1004.1 |
| 20260507024600 | 37 | 288 | 7.8 | 15.6 | 0.12 | 0.76 | 0.76 | 100 | 1004.2 |
| 20260507023055 | 38 | 296 | 3.5 | 7.8 | 0.12 | 0.74 | 0.74 | 99 | 1003.9 |
| 20260507021558 | 39 | 125 | 0.9 | 4.3 | 0.10 | 0.72 | 0.72 | 100 | 1004.1 |
| 20260507020056 | 41 | 263 | 3.5 | 7.8 | 0.06 | 0.68 | 0.68 | 100 | 1004.2 |
| 20260507014556 | 41 | 275 | 0.9 | 5.2 | 0.02 | 0.64 | 0.64 | 100 | 1003.9 |
| 20260507013056 | 42 | 256 | 0.9 | 6.1 | 0.01 | 0.62 | 0.62 | 100 | 1004.0 |
| 20260507011556 | 43 | 281 | 4.3 | 8.7 | 0.02 | 0.62 | 0.62 | 100 | 1004.2 |
| 20260507010111 | 43 | 353 | 0.0 | 10.4 | 0.03 | 0.62 | 0.62 | 100 | 1004.2 |
| 20260507004554 | 43 | 281 | 1.7 | 5.2 | 0.04 | 0.62 | 0.62 | 100 | 1004.6 |
| 20260507003056 | 43 | 309 | 0.0 | 3.5 | 0.06 | 0.61 | 0.61 | 100 | 1004.5 |
| 20260507001601 | 43 | 320 | 0.0 | 1.7 | 0.09 | 0.60 | 0.60 | 100 | 1004.5 |
| 20260507000105 | 43 | 350 | 1.7 | 5.2 | 0.12 | 0.58 | 0.58 | 100 | 1004.5 |
| 20260506234616 | 43 | 223 | 0.9 | 7.8 | 0.14 | 0.58 | 0.58 | 100 | 1004.7 |
| 20260506233103 | 43 | 53 | 2.6 | 9.6 | 0.11 | 0.55 | 0.55 | 99 | 1004.7 |
| 20260506231557 | 46 | 281 | 3.5 | 8.7 | 0.07 | 0.51 | 0.51 | 100 | 1004.5 |
| 20260506230058 | 48 | 164 | 1.7 | 11.3 | 0.03 | 0.46 | 0.46 | 100 | 1004.3 |
| 20260506224556 | 48 | 116 | 10.4 | 18.2 | 0.02 | 0.47 | 0.44 | 100 | 1003.7 |
| 20260506223101 | 48 | 210 | 12.2 | 20.0 | 0.02 | 0.47 | 0.44 | 100 | 1003.6 |
| 20260506221613 | 47 | 169 | 7.0 | 12.2 | 0.03 | 0.47 | 0.44 | 100 | 1004.3 |
| 20260506220056 | 47 | 171 | 7.8 | 14.8 | 0.03 | 0.46 | 0.43 | 100 | 1004.5 |
| 20260506214604 | 47 | 140 | 6.1 | 13.0 | 0.02 | 0.58 | 0.42 | 100 | 1004.7 |
| 20260506213058 | 47 | 177 | 6.1 | 13.9 | 0.03 | 0.58 | 0.42 | 100 | 1004.7 |
| 20260506211556 | 47 | 210 | 7.8 | 15.6 | 0.04 | 0.57 | 0.41 | 100 | 1004.7 |
| 20260506210101 | 47 | 135 | 9.6 | 13.9 | 0.04 | 0.56 | 0.40 | 100 | 1004.6 |
| 20260506204608 | 48 | 155 | 7.8 | 13.9 | 0.05 | 0.56 | 0.40 | 100 | 1004.8 |
| 20260506203054 | 48 | 210 | 6.1 | 10.4 | 0.05 | 0.55 | 0.39 | 100 | 1004.9 |
| 20260506201556 | 48 | 184 | 6.1 | 11.3 | 0.05 | 0.52 | 0.37 | 100 | 1004.9 |
| 20260506200056 | 48 | 177 | 7.0 | 13.0 | 0.06 | 0.52 | 0.36 | 100 | 1005.1 |
| 20260506194557 | 48 | 154 | 5.2 | 10.4 | 0.07 | 0.51 | 0.35 | 100 | 1005.2 |
| 20260506193055 | 47 | 210 | 5.2 | 11.3 | 0.07 | 0.50 | 0.34 | 100 | 1005.5 |
| 20260506191553 | 47 | 162 | 7.0 | 15.6 | 0.10 | 0.48 | 0.32 | 100 | 1005.7 |
| 20260506190058 | 47 | 142 | 9.6 | 18.2 | 0.09 | 0.46 | 0.30 | 100 | 1005.8 |
| 20260506184553 | 47 | 144 | 11.3 | 20.0 | 0.10 | 0.44 | 0.28 | 100 | 1005.8 |
| 20260506183100 | 47 | 210 | 7.0 | 14.8 | 0.13 | 0.43 | 0.27 | 100 | 1005.9 |
| 20260506181559 | 46 | 210 | 7.8 | 14.8 | 0.11 | 0.38 | 0.22 | 100 | 1006.2 |
| 20260506180058 | 46 | 126 | 10.4 | 15.6 | 0.10 | 0.37 | 0.21 | 100 | 1005.8 |
| 20260506174600 | 46 | 145 | 9.6 | 13.9 | 0.08 | 0.34 | 0.18 | 100 | 1006.2 |
| 20260506173126 | 46 | 158 | 10.4 | 20.0 | 0.04 | 0.30 | 0.14 | 100 | 1005.9 |
| 20260506171556 | 47 | 134 | 13.0 | 20.0 | 0.02 | 0.27 | 0.11 | 100 | 1006.1 |
| 20260506170053 | 47 | 139 | 13.0 | 22.6 | 0.02 | 0.27 | 0.11 | 100 | 1006.2 |
| 20260506164555 | 46 | 210 | 12.2 | 21.7 | 0.01 | 0.26 | 0.10 | 100 | 1006.5 |
| 20260506163056 | 46 | 139 | 12.2 | 21.7 | 0.01 | 0.26 | 0.10 | 100 | 1006.9 |
| 20260506161605 | 46 | 116 | 16.5 | 29.5 | 0.00 | 0.25 | 0.09 | 100 | 1007.0 |
| 20260506160105 | 47 | 136 | 17.4 | 25.2 | 0.00 | 0.25 | 0.09 | 100 | 1007.1 |
| 20260506154601 | 47 | 127 | 16.5 | 24.3 | 0.00 | 0.25 | 0.09 | 100 | 1007.3 |
| 20260506153055 | 47 | 135 | 15.6 | 23.5 | 0.00 | 0.25 | 0.09 | 100 | 1007.3 |
| 20260506151558 | 47 | 138 | 16.5 | 24.3 | 0.01 | 0.25 | 0.09 | 100 | 1007.3 |
| 20260506144609 | 46 | 123 | 15.6 | 21.7 | 0.02 | 0.25 | 0.09 | 100 | 1007.1 |
| 20260506143057 | 45 | 136 | 13.9 | 21.7 | 0.02 | 0.25 | 0.09 | 100 | 1007.1 |
| 20260506141555 | 46 | 150 | 16.5 | 25.2 | 0.01 | 0.24 | 0.08 | 100 | 1007.5 |
| 20260506140110 | 45 | 127 | 15.6 | 25.2 | 0.00 | 0.23 | 0.07 | 100 | 1007.9 |
| 20260506134554 | 44 | 116 | 16.5 | 25.2 | 0.00 | 0.23 | 0.07 | 100 | 1007.4 |
| 20260506133133 | 44 | 125 | 16.5 | 25.2 | 0.00 | 0.23 | 0.07 | 100 | 1007.2 |
| 20260506131555 | 43 | 210 | 15.6 | 21.7 | 0.00 | 0.23 | 0.07 | 100 | 1007.6 |
| 20260506130137 | 43 | 115 | 17.4 | 23.5 | 0.00 | 0.23 | 0.07 | 99 | 1007.8 |
| 20260506124556 | 43 | 210 | 17.4 | 26.1 | 0.00 | 0.23 | 0.07 | 99 | 1007.9 |
| 20260506123058 | 43 | 141 | 13.0 | 20.0 | 0.00 | 0.23 | 0.07 | 99 | 1008.0 |
| 20260506121600 | 43 | 132 | 13.0 | 20.9 | 0.00 | 0.23 | 0.07 | 98 | 1008.2 |
| 20260506120100 | 44 | 134 | 4.3 | 9.6 | 0.00 | 0.23 | 0.07 | 97 | 1008.5 |
| 20260506114553 | 45 | 132 | 2.6 | 7.0 | 0.00 | 0.23 | 0.07 | 96 | 1008.7 |
| 20260506113056 | 45 | 69 | 2.6 | 10.4 | 0.00 | 0.23 | 0.07 | 96 | 1008.5 |
| 20260506111557 | 45 | 145 | 3.5 | 7.0 | 0.00 | 0.23 | 0.07 | 97 | 1008.5 |
| 20260506110055 | 45 | 140 | 6.1 | 10.4 | 0.00 | 0.23 | 0.07 | 96 | 1008.5 |
| 20260506104605 | 44 | 123 | 3.5 | 8.7 | 0.00 | 0.23 | 0.07 | 97 | 1008.5 |
| 20260506103105 | 44 | 210 | 3.5 | 9.6 | 0.00 | 0.23 | 0.07 | 97 | 1008.7 |
| 20260506101556 | 43 | 117 | 2.6 | 6.1 | 0.00 | 0.23 | 0.07 | 98 | 1008.8 |
| 20260506100109 | 43 | 267 | 3.5 | 7.8 | 0.00 | 0.23 | 0.07 | 98 | 1008.9 |
| 20260506094603 | 43 | 131 | 2.6 | 8.7 | 0.00 | 0.23 | 0.07 | 98 | 1008.9 |
| 20260506093056 | 42 | 247 | 2.6 | 12.2 | 0.00 | 0.23 | 0.07 | 99 | 1008.8 |
| 20260506091557 | 42 | 271 | 4.3 | 9.6 | 0.00 | 0.23 | 0.07 | 99 | 1009.0 |
| 20260506090056 | 42 | 246 | 5.2 | 10.4 | 0.00 | 0.23 | 0.07 | 99 | 1008.5 |
| 20260506084600 | 42 | 264 | 5.2 | 11.3 | 0.00 | 0.23 | 0.07 | 99 | 1008.5 |
| 20260506083059 | 42 | 298 | 3.5 | 12.2 | 0.01 | 0.23 | 0.07 | 99 | 1008.9 |
| 20260506081608 | 42 | 258 | 7.0 | 11.3 | 0.02 | 0.23 | 0.07 | 99 | 1008.8 |
| 20260506073058 | 42 | 279 | 7.8 | 14.8 | 0.02 | 0.22 | 0.06 | 99 | 1009.0 |